Аэропорт: Емельяново. Красноярск

ICAO: UNKL

METAR:
2018/05/20 23:00
UNKL 202300Z 27004MPS CAVOK 03/M04 Q1023 R29/CLRD65 NOSIG RMK QFE741
METAR:
2018/05/20 21:21
TAF UNKL 202000Z 2021/2121 26005G12MPS 9999 SCT030 
      BECMG 2100/2102 20006G12MPS SCT020CB 
      TEMPO 2103/2115 22011G17MPS 4000 -SHRA 
      TEMPO 2115/2121 3100 -SHRA